Pagina principale
METAR-TAF:

METAR-TAF

Aeroporti :

Aeroporto di Catania-Fontanarossa

Catania, Italia

latitudine: 37-28N, longitudine: 015-03E, altezza: 11 m

Osservazione

Il bollettino è stato emesso 30 minuti fa, alle 22:50 UTC
Vento 15 kt da est
Temperature 22°C
Umidità 78%
Pressione 1013 hPa
Visibilità 10 km o più
Poco nuvoloso ad un'altezza di 2000 ft
Nubi sparse ad un'altezza di 4000 ft

METAR: LICC 172250Z 08015KT 9999 FEW020 SCT040 22/18 Q1013

Ora: 01:20 (23:20 UTC)

Previsione

Il bollettino è stato emesso 6 ore e 20 minuti fa, alle 17:00 UTC
Previsione valida dal 17 alle 18 UTC al 18 alle 18 UTC
Vento 12 kt da est
Visibilità 10 km o più
Nubi sparse ad un'altezza di 3000 ft
Temporaneamente
dal 17 alle 18 UTC al 17 alle 20 UTC
pioggia
Temporaneamente
dal 18 alle 12 UTC al 18 alle 18 UTC
rovesci di pioggia

TAF: LICC 171700Z 1718/1818 10012KT 9999 SCT030 TEMPO 1718/1720 RA TEMPO 1812/1818 SHRA

Osservazioni e previsioni meteorologiche di più di 4000 aeroporti (messaggi METAR e TAF).

Le stazioni disponibili sono rappresentate dai dischi gialli e rossi sulla carta.

Puntare il mouse per vedere il nome della stazione.

Clicca sopra per visualizzare le osservazioni e previsioni meteorologiche.

Per cambiare la mappa : fare clic sui pulsanti verdi con una croce nera per ingrandire, il pulsante verde con un trattino per diminuire, o sulla freccia verde per le mappe adiacenti.


METAR-TAF: